Lafayette, CA

8:32 PM PDT on August 27, 2014 (GMT -0700)
KF6IIU | Change Station
CLOSE
Current Station
Personal Weather Station
Location: Lafayette, CA
Elevation: 400 ft
Nearby Weather Stations

Elev 400 ft 37.89 °N, 122.11 °W | Updated 4 minutes ago

Clear
Clear
71.8 °F
Feels Like 77 °F
N
0.0
Wind Variable Wind from West
Gusts 0.0 mph

Today
High -- | Low -- °F
--% Chance of Precip.
Yesterday
High -- | Low -- °F
Precip. -- in
6:34 AM 7:44 PM
Waxing Crescent, 6% visible
Pressure 29.94 in
Visibility 10.0 miles
Clouds Clear
Heat Index 77 °F
Dew Point 43 °F
Humidity 36%
Rainfall -999.00 in
Snow Depth Not available.
UV 0 out of 12
Pollen 7.00 out of 12
Ozone Good
PM2.5 Good
Flu Activity Not available.
METAR KCCR 280253Z 29009KT 10SM CLR 25/12 A2997 RMK AO2 SLP137 T02500122 53010

More Conditions Fewer Conditions

Pressure 29.94 in
Visibility 10.0 miles
Clouds Clear
Heat Index 77 °F
Dew Point 43 °F
Humidity 36%
Rainfall -999.00 in
Snow Depth Not available.
UV 0 out of 12
Pollen 7.00 out of 12
Ozone Good
PM2.5 Good
Flu Activity Not available.
METAR KCCR 280253Z 29009KT 10SM CLR 25/12 A2997 RMK AO2 SLP137 T02500122 53010

More Conditions Fewer Conditions

10-Day Weather Forecast

Almanac

Astronomy

Aug. 27, 2014 Rise Set
Actual Time 6:34 AM PDT 7:44 PM PDT
Civil Twilight 6:07 AM PDT 8:12 PM PDT
Nautical Twilight 5:34 AM PDT 8:44 PM PDT
Astronomical Twilight 5:00 AM PDT 9:18 PM PDT
Moon 8:32 AM PDT (8/27) 8:43 PM PDT (8/27)
Length of Visible Light 14h 05m
Length of Day
13h 10m
Tomorrow will be 2m 18s shorter.
Waxing Crescent, 6% of the Moon is Illuminated
Today
Waxing Crescent
Sep 2
First Quarter
Sep 8
Full
Sep 15
Last Quarter
Sep 24
New

Today's Extremes

State Highs State Lows

Community

WunderPhotos

Upload Photos

1,747,896 photos uploaded!

Nearby

Air Quality

  Air Quality AQ Index Pollutant
Yesterday Good
OZONE
Yesterday Good
PM2.5
Current Good
OZONE
Current Good
PM2.5
Wednesday Good
OZONE
Thursday Good
OZONE
Friday Good
OZONE
Saturday Good
OZONE
Sunday Good
OZONE
Monday Good
OZONE

Snow Depth

Station Depth Elevation
Echo Peak 0 in 7800 ft
Rubicon #2 0 in 7500 ft
Hagan's Meadow 0 in 8000 ft
CSS Lab 0 in 6900 ft
Leavitt Lake 0 in 9400 ft

Earthquake Activity

City Distance Mag. Time & Date
Napa, California 27 miles 2.6 11:57 AM PDT
2014-08-27
The Geysers, California 74 miles 2.6 7:42 AM PDT
2014-08-27
Soledad, California 108 miles 2.6 12:15 PM PDT
2014-08-26
Napa, California 26 miles 2.5 10:56 AM PDT
2014-08-26
Minimum magnitude displayed is 2.5.

Coastal Water Temperatures

Place Temperature
San Francisco, CA 66.0 °F
Richmond, CA 66.9 °F
Port Chicago, CA 70.0 °F

Nearby Weather Stations